sensor_id;sensor_type;location;lat;lon;timestamp;noise_LAeq;noise_LA_min;noise_LA_max;noise_LA01;noise_LA95
41704;Laerm;861;48.808;9.006;2023-06-24T00:02:23;35.08;33.75;36.91;;
41704;Laerm;861;48.808;9.006;2023-06-24T00:04:51;35.08;33.65;36.71;;
41704;Laerm;861;48.808;9.006;2023-06-24T00:07:20;35.09;33.75;36.33;;
41704;Laerm;861;48.808;9.006;2023-06-24T00:09:49;35.08;33.86;36.28;;
41704;Laerm;861;48.808;9.006;2023-06-24T00:12:16;35.07;33.77;36.21;;
41704;Laerm;861;48.808;9.006;2023-06-24T00:14:47;35.08;33.89;36.26;;
41704;Laerm;861;48.808;9.006;2023-06-24T00:17:14;35.09;33.79;37.83;;
41704;Laerm;861;48.808;9.006;2023-06-24T00:19:42;35.10;33.86;37.15;;
41704;Laerm;861;48.808;9.006;2023-06-24T00:22:10;35.12;33.78;36.92;;
41704;Laerm;861;48.808;9.006;2023-06-24T00:24:36;35.12;33.66;37.69;;
41704;Laerm;861;48.808;9.006;2023-06-24T00:27:03;35.13;33.84;37.72;;
41704;Laerm;861;48.808;9.006;2023-06-24T00:29:30;35.14;33.89;37.87;;
41704;Laerm;861;48.808;9.006;2023-06-24T00:31:56;35.14;33.66;37.57;;
41704;Laerm;861;48.808;9.006;2023-06-24T00:34:23;35.14;33.70;36.31;;
41704;Laerm;861;48.808;9.006;2023-06-24T00:36:50;35.15;33.75;37.17;;
41704;Laerm;861;48.808;9.006;2023-06-24T00:39:17;35.17;33.71;36.68;;
41704;Laerm;861;48.808;9.006;2023-06-24T00:41:44;35.14;33.77;37.24;;
41704;Laerm;861;48.808;9.006;2023-06-24T00:44:11;35.14;33.94;39.63;;
41704;Laerm;861;48.808;9.006;2023-06-24T00:46:38;35.14;34.00;36.53;;
41704;Laerm;861;48.808;9.006;2023-06-24T00:49:06;35.13;33.91;36.36;;
41704;Laerm;861;48.808;9.006;2023-06-24T00:51:33;35.14;33.84;36.23;;
41704;Laerm;861;48.808;9.006;2023-06-24T00:54:02;35.13;33.85;36.46;;
41704;Laerm;861;48.808;9.006;2023-06-24T00:56:35;35.13;33.84;36.39;;
41704;Laerm;861;48.808;9.006;2023-06-24T00:59:15;35.10;33.91;37.79;;
41704;Laerm;861;48.808;9.006;2023-06-24T01:01:44;35.08;33.66;37.10;;
41704;Laerm;861;48.808;9.006;2023-06-24T01:04:12;35.10;33.82;38.24;;
41704;Laerm;861;48.808;9.006;2023-06-24T01:06:38;35.12;33.93;36.50;;
41704;Laerm;861;48.808;9.006;2023-06-24T01:09:10;35.12;33.76;37.02;;
41704;Laerm;861;48.808;9.006;2023-06-24T01:11:37;35.13;33.79;36.48;;
41704;Laerm;861;48.808;9.006;2023-06-24T01:14:05;35.15;33.83;39.58;;
41704;Laerm;861;48.808;9.006;2023-06-24T01:17:31;35.15;33.81;36.92;;
41704;Laerm;861;48.808;9.006;2023-06-24T01:27:23;35.17;33.93;37.01;;
41704;Laerm;861;48.808;9.006;2023-06-24T01:33:14;35.20;33.85;36.27;;
41704;Laerm;861;48.808;9.006;2023-06-24T01:35:48;35.18;33.98;37.69;;
41704;Laerm;861;48.808;9.006;2023-06-24T01:38:55;35.19;33.68;36.75;;
41704;Laerm;861;48.808;9.006;2023-06-24T01:41:34;35.19;33.90;36.67;;
41704;Laerm;861;48.808;9.006;2023-06-24T01:44:07;35.21;33.67;39.18;;
41704;Laerm;861;48.808;9.006;2023-06-24T01:46:38;35.19;33.59;36.86;;
41704;Laerm;861;48.808;9.006;2023-06-24T01:49:14;35.18;33.88;37.63;;
41704;Laerm;861;48.808;9.006;2023-06-24T01:51:48;35.15;33.95;39.43;;
41704;Laerm;861;48.808;9.006;2023-06-24T01:54:20;35.16;33.95;37.69;;
41704;Laerm;861;48.808;9.006;2023-06-24T01:56:55;35.15;33.97;39.21;;
41704;Laerm;861;48.808;9.006;2023-06-24T01:59:29;35.14;33.95;36.34;;
41704;Laerm;861;48.808;9.006;2023-06-24T02:01:59;35.15;33.89;37.80;;
41704;Laerm;861;48.808;9.006;2023-06-24T02:04:29;35.14;33.81;36.60;;
41704;Laerm;861;48.808;9.006;2023-06-24T02:07:03;35.12;33.65;36.54;;
41704;Laerm;861;48.808;9.006;2023-06-24T02:09:34;35.14;33.90;38.10;;
41704;Laerm;861;48.808;9.006;2023-06-24T02:12:05;35.14;33.90;36.61;;
41704;Laerm;861;48.808;9.006;2023-06-24T02:14:35;35.15;33.73;39.92;;
41704;Laerm;861;48.808;9.006;2023-06-24T02:17:08;35.12;33.78;36.97;;
41704;Laerm;861;48.808;9.006;2023-06-24T02:19:39;35.09;33.74;37.94;;
41704;Laerm;861;48.808;9.006;2023-06-24T02:22:08;35.04;33.97;44.83;;
41704;Laerm;861;48.808;9.006;2023-06-24T02:24:38;35.03;33.84;38.18;;
41704;Laerm;861;48.808;9.006;2023-06-24T02:27:11;35.05;33.81;43.75;;
41704;Laerm;861;48.808;9.006;2023-06-24T02:29:41;35.05;33.86;43.37;;
41704;Laerm;861;48.808;9.006;2023-06-24T02:32:09;35.06;33.82;37.00;;
41704;Laerm;861;48.808;9.006;2023-06-24T02:34:36;35.06;33.63;37.69;;
41704;Laerm;861;48.808;9.006;2023-06-24T02:37:03;35.03;33.78;38.46;;
41704;Laerm;861;48.808;9.006;2023-06-24T02:39:30;35.01;33.77;37.76;;
41704;Laerm;861;48.808;9.006;2023-06-24T02:41:56;35.01;33.76;37.97;;
41704;Laerm;861;48.808;9.006;2023-06-24T02:44:23;35.03;33.84;43.06;;
41704;Laerm;861;48.808;9.006;2023-06-24T02:46:54;35.04;33.49;39.51;;
41704;Laerm;861;48.808;9.006;2023-06-24T02:49:23;35.04;33.91;38.13;;
41704;Laerm;861;48.808;9.006;2023-06-24T02:51:50;35.03;33.72;38.95;;
41704;Laerm;861;48.808;9.006;2023-06-24T02:54:17;35.00;33.78;38.19;;
41704;Laerm;861;48.808;9.006;2023-06-24T02:56:45;35.02;33.87;39.18;;
41704;Laerm;861;48.808;9.006;2023-06-24T02:59:11;35.02;33.68;36.47;;
41704;Laerm;861;48.808;9.006;2023-06-24T03:01:40;35.03;33.70;39.52;;
41704;Laerm;861;48.808;9.006;2023-06-24T03:04:12;35.01;33.41;37.44;;
41704;Laerm;861;48.808;9.006;2023-06-24T03:06:41;35.02;33.68;39.00;;
41704;Laerm;861;48.808;9.006;2023-06-24T03:09:08;35.01;33.77;37.21;;
41704;Laerm;861;48.808;9.006;2023-06-24T03:11:43;35.00;33.70;39.32;;
41704;Laerm;861;48.808;9.006;2023-06-24T03:14:11;35.01;33.62;36.64;;
41704;Laerm;861;48.808;9.006;2023-06-24T03:16:38;35.03;33.80;37.03;;
41704;Laerm;861;48.808;9.006;2023-06-24T03:19:06;35.05;33.87;39.39;;
41704;Laerm;861;48.808;9.006;2023-06-24T03:21:33;35.03;33.75;36.72;;
41704;Laerm;861;48.808;9.006;2023-06-24T03:24:00;35.04;33.84;37.17;;
41704;Laerm;861;48.808;9.006;2023-06-24T03:26:39;35.03;33.78;38.01;;
41704;Laerm;861;48.808;9.006;2023-06-24T03:29:06;35.04;33.89;39.79;;
41704;Laerm;861;48.808;9.006;2023-06-24T03:31:37;35.03;33.82;37.34;;
41704;Laerm;861;48.808;9.006;2023-06-24T03:34:04;35.04;33.70;36.69;;
41704;Laerm;861;48.808;9.006;2023-06-24T03:36:30;35.03;33.70;37.14;;
41704;Laerm;861;48.808;9.006;2023-06-24T03:38:57;35.03;33.60;36.59;;
41704;Laerm;861;48.808;9.006;2023-06-24T03:41:23;35.03;33.85;36.43;;
41704;Laerm;861;48.808;9.006;2023-06-24T03:43:52;35.04;33.63;37.81;;
41704;Laerm;861;48.808;9.006;2023-06-24T03:46:19;35.05;33.77;36.52;;
41704;Laerm;861;48.808;9.006;2023-06-24T03:48:45;35.05;33.66;37.24;;
41704;Laerm;861;48.808;9.006;2023-06-24T03:51:13;35.06;33.73;37.97;;
41704;Laerm;861;48.808;9.006;2023-06-24T03:53:39;35.06;33.76;37.42;;
41704;Laerm;861;48.808;9.006;2023-06-24T03:56:06;35.07;33.81;41.23;;
41704;Laerm;861;48.808;9.006;2023-06-24T03:58:32;35.05;33.14;37.01;;
41704;Laerm;861;48.808;9.006;2023-06-24T04:01:02;35.08;33.69;37.96;;
41704;Laerm;861;48.808;9.006;2023-06-24T04:03:29;35.10;33.76;36.51;;
41704;Laerm;861;48.808;9.006;2023-06-24T04:05:57;35.10;33.85;37.51;;
41704;Laerm;861;48.808;9.006;2023-06-24T04:08:24;35.12;33.66;37.43;;
41704;Laerm;861;48.808;9.006;2023-06-24T04:10:57;35.11;33.62;39.10;;
41704;Laerm;861;48.808;9.006;2023-06-24T04:13:26;35.13;33.97;40.10;;
41704;Laerm;861;48.808;9.006;2023-06-24T04:15:53;35.14;33.63;36.44;;
41704;Laerm;861;48.808;9.006;2023-06-24T04:18:20;35.14;33.92;37.24;;
41704;Laerm;861;48.808;9.006;2023-06-24T04:20:47;35.15;33.77;36.52;;
41704;Laerm;861;48.808;9.006;2023-06-24T04:23:14;35.16;33.79;36.65;;
41704;Laerm;861;48.808;9.006;2023-06-24T04:25:41;35.19;33.84;37.63;;
41704;Laerm;861;48.808;9.006;2023-06-24T04:28:09;35.20;33.77;36.40;;
41704;Laerm;861;48.808;9.006;2023-06-24T04:30:35;35.20;33.76;36.46;;
41704;Laerm;861;48.808;9.006;2023-06-24T04:33:02;35.22;34.01;36.47;;
41704;Laerm;861;48.808;9.006;2023-06-24T04:35:29;35.22;33.86;36.59;;
41704;Laerm;861;48.808;9.006;2023-06-24T04:37:56;35.23;34.00;36.53;;
41704;Laerm;861;48.808;9.006;2023-06-24T04:40:23;35.22;33.76;36.36;;
41704;Laerm;861;48.808;9.006;2023-06-24T04:42:50;35.22;34.01;36.50;;
41704;Laerm;861;48.808;9.006;2023-06-24T04:45:17;35.23;33.87;36.49;;
41704;Laerm;861;48.808;9.006;2023-06-24T04:47:43;35.23;33.82;36.63;;
41704;Laerm;861;48.808;9.006;2023-06-24T04:50:11;35.22;33.88;36.45;;
41704;Laerm;861;48.808;9.006;2023-06-24T04:52:38;35.21;34.00;36.46;;
41704;Laerm;861;48.808;9.006;2023-06-24T04:55:06;35.22;33.97;37.61;;
41704;Laerm;861;48.808;9.006;2023-06-24T04:57:33;35.23;34.05;36.40;;
41704;Laerm;861;48.808;9.006;2023-06-24T05:00:04;35.24;34.08;36.62;;
41704;Laerm;861;48.808;9.006;2023-06-24T05:02:31;35.24;34.03;36.34;;
41704;Laerm;861;48.808;9.006;2023-06-24T05:04:58;35.25;34.09;36.60;;
41704;Laerm;861;48.808;9.006;2023-06-24T05:07:25;35.26;33.82;36.68;;
41704;Laerm;861;48.808;9.006;2023-06-24T05:09:51;35.28;33.93;36.59;;
41704;Laerm;861;48.808;9.006;2023-06-24T05:12:18;35.28;33.85;36.63;;
41704;Laerm;861;48.808;9.006;2023-06-24T05:14:49;35.30;34.04;36.53;;
41704;Laerm;861;48.808;9.006;2023-06-24T05:17:16;35.30;33.72;36.44;;
41704;Laerm;861;48.808;9.006;2023-06-24T05:19:42;35.31;34.06;36.56;;
41704;Laerm;861;48.808;9.006;2023-06-24T05:22:10;35.32;34.05;36.92;;
41704;Laerm;861;48.808;9.006;2023-06-24T05:24:36;35.31;34.01;36.76;;
41704;Laerm;861;48.808;9.006;2023-06-24T05:27:08;35.34;33.97;36.40;;
41704;Laerm;861;48.808;9.006;2023-06-24T05:29:35;35.35;33.84;36.61;;
41704;Laerm;861;48.808;9.006;2023-06-24T05:32:01;35.35;34.06;36.46;;
41704;Laerm;861;48.808;9.006;2023-06-24T05:34:30;35.35;33.91;36.63;;
41704;Laerm;861;48.808;9.006;2023-06-24T05:36:57;35.36;33.87;36.45;;
41704;Laerm;861;48.808;9.006;2023-06-24T05:39:25;35.35;33.98;36.56;;
41704;Laerm;861;48.808;9.006;2023-06-24T05:41:52;35.36;33.94;37.05;;
41704;Laerm;861;48.808;9.006;2023-06-24T05:44:20;35.35;34.05;36.72;;
41704;Laerm;861;48.808;9.006;2023-06-24T05:46:47;35.36;33.88;36.54;;
41704;Laerm;861;48.808;9.006;2023-06-24T05:49:13;35.37;34.06;36.58;;
41704;Laerm;861;48.808;9.006;2023-06-24T05:51:40;35.39;33.76;36.57;;
41704;Laerm;861;48.808;9.006;2023-06-24T05:54:07;35.38;33.91;36.74;;
41704;Laerm;861;48.808;9.006;2023-06-24T05:56:37;35.40;34.12;36.53;;
41704;Laerm;861;48.808;9.006;2023-06-24T05:59:03;35.40;34.12;36.62;;
41704;Laerm;861;48.808;9.006;2023-06-24T06:01:30;35.41;34.11;36.60;;
41704;Laerm;861;48.808;9.006;2023-06-24T06:03:56;35.42;34.13;36.64;;
41704;Laerm;861;48.808;9.006;2023-06-24T06:06:23;35.43;34.08;36.73;;
41704;Laerm;861;48.808;9.006;2023-06-24T06:08:50;35.41;34.08;36.57;;
41704;Laerm;861;48.808;9.006;2023-06-24T06:11:16;35.44;34.08;36.90;;
41704;Laerm;861;48.808;9.006;2023-06-24T06:13:43;35.43;34.19;36.72;;
41704;Laerm;861;48.808;9.006;2023-06-24T06:16:09;35.42;34.23;36.58;;
41704;Laerm;861;48.808;9.006;2023-06-24T06:18:36;35.43;34.06;36.70;;
41704;Laerm;861;48.808;9.006;2023-06-24T06:21:02;35.43;34.14;36.75;;
41704;Laerm;861;48.808;9.006;2023-06-24T06:23:29;35.44;34.13;36.84;;
41704;Laerm;861;48.808;9.006;2023-06-24T06:25:56;35.45;34.17;36.76;;
41704;Laerm;861;48.808;9.006;2023-06-24T06:28:23;35.49;34.08;36.90;;
41704;Laerm;861;48.808;9.006;2023-06-24T06:30:49;35.54;34.28;36.80;;
41704;Laerm;861;48.808;9.006;2023-06-24T06:33:16;35.56;34.31;36.77;;
41704;Laerm;861;48.808;9.006;2023-06-24T06:35:42;35.53;34.27;36.97;;
41704;Laerm;861;48.808;9.006;2023-06-24T06:38:09;35.57;34.19;36.67;;
41704;Laerm;861;48.808;9.006;2023-06-24T06:40:36;35.58;34.35;36.89;;
41704;Laerm;861;48.808;9.006;2023-06-24T06:43:02;35.64;34.46;36.81;;
41704;Laerm;861;48.808;9.006;2023-06-24T06:45:29;35.65;34.38;46.37;;
41704;Laerm;861;48.808;9.006;2023-06-24T06:47:55;35.66;34.52;36.93;;
41704;Laerm;861;48.808;9.006;2023-06-24T06:50:22;35.74;34.43;37.01;;
41704;Laerm;861;48.808;9.006;2023-06-24T06:52:48;35.74;34.47;37.10;;
41704;Laerm;861;48.808;9.006;2023-06-24T06:55:15;35.76;34.27;37.13;;
41704;Laerm;861;48.808;9.006;2023-06-24T06:57:42;35.81;34.53;37.02;;
41704;Laerm;861;48.808;9.006;2023-06-24T07:00:10;35.92;34.71;37.06;;
41704;Laerm;861;48.808;9.006;2023-06-24T07:02:36;36.03;34.57;37.32;;
41704;Laerm;861;48.808;9.006;2023-06-24T07:05:03;36.12;34.94;37.45;;
41704;Laerm;861;48.808;9.006;2023-06-24T07:07:30;36.17;35.01;37.66;;
41704;Laerm;861;48.808;9.006;2023-06-24T07:09:56;36.26;35.08;37.43;;
41704;Laerm;861;48.808;9.006;2023-06-24T07:12:23;36.34;34.95;37.59;;
41704;Laerm;861;48.808;9.006;2023-06-24T07:14:51;36.31;35.07;37.41;;
41704;Laerm;861;48.808;9.006;2023-06-24T07:17:17;36.25;35.05;37.81;;
41704;Laerm;861;48.808;9.006;2023-06-24T07:19:44;36.32;34.74;37.68;;
41704;Laerm;861;48.808;9.006;2023-06-24T07:22:10;36.29;34.99;37.53;;
41704;Laerm;861;48.808;9.006;2023-06-24T07:24:38;36.40;34.89;37.90;;
41704;Laerm;861;48.808;9.006;2023-06-24T07:27:05;36.40;34.98;37.62;;
41704;Laerm;861;48.808;9.006;2023-06-24T07:29:32;36.50;35.17;37.86;;
41704;Laerm;861;48.808;9.006;2023-06-24T07:31:58;36.51;35.34;37.68;;
41704;Laerm;861;48.808;9.006;2023-06-24T07:34:25;36.55;35.11;37.81;;
41704;Laerm;861;48.808;9.006;2023-06-24T07:36:51;36.61;34.99;37.97;;
41704;Laerm;861;48.808;9.006;2023-06-24T07:39:18;36.67;35.38;37.94;;
41704;Laerm;861;48.808;9.006;2023-06-24T07:41:45;36.74;35.34;37.94;;
41704;Laerm;861;48.808;9.006;2023-06-24T07:44:11;36.75;35.36;37.98;;
41704;Laerm;861;48.808;9.006;2023-06-24T07:46:38;36.74;35.62;37.98;;
41704;Laerm;861;48.808;9.006;2023-06-24T07:49:04;36.72;35.27;37.89;;
41704;Laerm;861;48.808;9.006;2023-06-24T07:51:31;36.76;35.54;37.92;;
41704;Laerm;861;48.808;9.006;2023-06-24T07:53:58;36.81;35.68;38.06;;
41704;Laerm;861;48.808;9.006;2023-06-24T07:56:24;36.78;35.51;38.07;;
41704;Laerm;861;48.808;9.006;2023-06-24T07:58:51;36.85;35.59;38.20;;
41704;Laerm;861;48.808;9.006;2023-06-24T08:01:17;36.85;35.54;37.98;;
41704;Laerm;861;48.808;9.006;2023-06-24T08:03:44;36.87;35.63;38.28;;
41704;Laerm;861;48.808;9.006;2023-06-24T08:06:10;36.85;35.50;38.24;;
41704;Laerm;861;48.808;9.006;2023-06-24T08:08:37;36.89;35.80;37.98;;
41704;Laerm;861;48.808;9.006;2023-06-24T08:11:04;36.87;35.58;38.00;;
41704;Laerm;861;48.808;9.006;2023-06-24T08:13:30;36.84;35.53;37.98;;
41704;Laerm;861;48.808;9.006;2023-06-24T08:15:57;36.93;35.65;38.19;;
41704;Laerm;861;48.808;9.006;2023-06-24T08:18:23;36.92;35.65;38.05;;
41704;Laerm;861;48.808;9.006;2023-06-24T08:20:50;36.95;35.63;38.15;;
41704;Laerm;861;48.808;9.006;2023-06-24T08:23:16;37.00;35.60;38.26;;
41704;Laerm;861;48.808;9.006;2023-06-24T08:25:43;37.03;35.74;38.29;;
41704;Laerm;861;48.808;9.006;2023-06-24T08:28:10;37.06;35.74;38.22;;
41704;Laerm;861;48.808;9.006;2023-06-24T08:30:37;37.03;35.74;38.25;;
41704;Laerm;861;48.808;9.006;2023-06-24T08:33:03;37.06;35.74;38.23;;
41704;Laerm;861;48.808;9.006;2023-06-24T08:35:30;37.02;35.47;38.23;;
41704;Laerm;861;48.808;9.006;2023-06-24T08:37:56;37.07;35.76;38.21;;
41704;Laerm;861;48.808;9.006;2023-06-24T08:40:23;37.12;35.83;38.41;;
41704;Laerm;861;48.808;9.006;2023-06-24T08:42:50;37.12;35.80;38.38;;
41704;Laerm;861;48.808;9.006;2023-06-24T08:45:17;37.15;35.81;38.31;;
41704;Laerm;861;48.808;9.006;2023-06-24T08:47:46;37.23;35.89;38.25;;
41704;Laerm;861;48.808;9.006;2023-06-24T08:50:16;37.24;35.90;38.32;;
41704;Laerm;861;48.808;9.006;2023-06-24T08:52:51;37.23;35.96;38.42;;
41704;Laerm;861;48.808;9.006;2023-06-24T08:55:27;37.26;35.95;38.64;;
41704;Laerm;861;48.808;9.006;2023-06-24T08:57:57;37.29;35.86;38.49;;
41704;Laerm;861;48.808;9.006;2023-06-24T09:00:24;37.32;36.06;38.60;;
41704;Laerm;861;48.808;9.006;2023-06-24T09:02:50;37.32;36.07;38.58;;
41704;Laerm;861;48.808;9.006;2023-06-24T09:05:17;37.33;35.76;38.70;;
41704;Laerm;861;48.808;9.006;2023-06-24T09:07:44;37.34;36.05;38.57;;
41704;Laerm;861;48.808;9.006;2023-06-24T09:10:28;37.31;36.00;38.58;;
41704;Laerm;861;48.808;9.006;2023-06-24T09:12:55;37.32;35.59;38.43;;
41704;Laerm;861;48.808;9.006;2023-06-24T09:15:22;37.29;36.11;38.38;;
41704;Laerm;861;48.808;9.006;2023-06-24T09:17:49;37.30;36.06;38.90;;
41704;Laerm;861;48.808;9.006;2023-06-24T09:20:15;37.25;36.05;38.40;;
41704;Laerm;861;48.808;9.006;2023-06-24T09:22:46;37.23;35.92;38.36;;
41704;Laerm;861;48.808;9.006;2023-06-24T09:25:20;37.27;35.88;38.39;;
41704;Laerm;861;48.808;9.006;2023-06-24T09:27:50;37.29;35.84;38.81;;
41704;Laerm;861;48.808;9.006;2023-06-24T09:30:26;37.31;35.95;38.42;;
41704;Laerm;861;48.808;9.006;2023-06-24T09:32:55;37.30;35.87;38.55;;
41704;Laerm;861;48.808;9.006;2023-06-24T09:35:25;37.30;35.86;38.54;;
41704;Laerm;861;48.808;9.006;2023-06-24T09:37:57;37.27;35.74;38.75;;
41704;Laerm;861;48.808;9.006;2023-06-24T09:40:26;37.27;35.89;38.43;;
41704;Laerm;861;48.808;9.006;2023-06-24T09:42:58;37.28;35.88;38.37;;
41704;Laerm;861;48.808;9.006;2023-06-24T09:45:29;37.29;35.83;38.63;;
41704;Laerm;861;48.808;9.006;2023-06-24T09:47:57;37.30;35.40;38.43;;
41704;Laerm;861;48.808;9.006;2023-06-24T09:50:24;37.29;35.78;38.63;;
41704;Laerm;861;48.808;9.006;2023-06-24T09:52:56;39.21;35.85;71.31;;
41704;Laerm;861;48.808;9.006;2023-06-24T09:55:25;37.11;35.79;38.36;;
41704;Laerm;861;48.808;9.006;2023-06-24T09:57:54;37.08;35.70;38.58;;
41704;Laerm;861;48.808;9.006;2023-06-24T10:00:22;37.05;35.60;38.24;;
41704;Laerm;861;48.808;9.006;2023-06-24T10:02:53;36.91;35.35;38.21;;
41704;Laerm;861;48.808;9.006;2023-06-24T10:05:20;36.91;35.43;38.23;;
41704;Laerm;861;48.808;9.006;2023-06-24T10:07:48;36.67;35.39;38.13;;
41704;Laerm;861;48.808;9.006;2023-06-24T10:10:15;36.62;35.09;38.04;;
41704;Laerm;861;48.808;9.006;2023-06-24T10:12:43;36.70;35.28;38.96;;
41704;Laerm;861;48.808;9.006;2023-06-24T10:15:09;36.77;35.05;38.17;;
41704;Laerm;861;48.808;9.006;2023-06-24T10:17:37;36.60;35.26;37.88;;
41704;Laerm;861;48.808;9.006;2023-06-24T10:20:06;36.63;35.07;38.06;;
41704;Laerm;861;48.808;9.006;2023-06-24T10:22:34;36.72;35.19;38.04;;
41704;Laerm;861;48.808;9.006;2023-06-24T10:25:06;36.73;35.36;38.19;;
41704;Laerm;861;48.808;9.006;2023-06-24T10:27:40;36.51;35.01;37.93;;
41704;Laerm;861;48.808;9.006;2023-06-24T10:30:16;36.41;35.00;38.80;;
41704;Laerm;861;48.808;9.006;2023-06-24T10:32:44;36.41;34.78;37.82;;
41704;Laerm;861;48.808;9.006;2023-06-24T10:35:28;36.50;35.18;37.67;;
41704;Laerm;861;48.808;9.006;2023-06-24T10:38:01;36.54;35.19;38.04;;
41704;Laerm;861;48.808;9.006;2023-06-24T10:40:44;36.56;34.85;38.06;;
41704;Laerm;861;48.808;9.006;2023-06-24T10:43:29;36.54;34.97;39.18;;
41704;Laerm;861;48.808;9.006;2023-06-24T10:45:58;36.52;34.97;45.64;;
41704;Laerm;861;48.808;9.006;2023-06-24T10:48:28;36.52;35.27;37.83;;
41704;Laerm;861;48.808;9.006;2023-06-24T10:50:54;36.47;34.84;37.83;;
41704;Laerm;861;48.808;9.006;2023-06-24T10:53:22;36.49;35.09;37.70;;
41704;Laerm;861;48.808;9.006;2023-06-24T10:55:49;36.41;34.94;38.56;;
41704;Laerm;861;48.808;9.006;2023-06-24T10:58:16;36.30;34.84;39.37;;
41704;Laerm;861;48.808;9.006;2023-06-24T11:00:44;36.28;34.86;37.69;;
41704;Laerm;861;48.808;9.006;2023-06-24T11:03:17;36.26;34.63;37.62;;
41704;Laerm;861;48.808;9.006;2023-06-24T11:05:49;36.23;34.77;37.73;;
41704;Laerm;861;48.808;9.006;2023-06-24T11:08:16;36.30;34.50;37.82;;
41704;Laerm;861;48.808;9.006;2023-06-24T11:10:49;36.14;34.73;37.68;;
41704;Laerm;861;48.808;9.006;2023-06-24T11:13:20;36.33;34.81;37.72;;
41704;Laerm;861;48.808;9.006;2023-06-24T11:15:46;36.14;34.74;37.91;;
41704;Laerm;861;48.808;9.006;2023-06-24T11:18:13;36.09;34.73;37.48;;
41704;Laerm;861;48.808;9.006;2023-06-24T11:20:40;35.97;34.38;37.74;;
41704;Laerm;861;48.808;9.006;2023-06-24T11:23:09;35.91;34.55;37.19;;
41704;Laerm;861;48.808;9.006;2023-06-24T11:25:43;35.80;34.43;37.00;;
41704;Laerm;861;48.808;9.006;2023-06-24T11:28:19;36.01;34.54;37.37;;
41704;Laerm;861;48.808;9.006;2023-06-24T11:30:46;35.75;34.28;37.24;;
41704;Laerm;861;48.808;9.006;2023-06-24T11:33:12;35.61;34.16;39.43;;
41704;Laerm;861;48.808;9.006;2023-06-24T11:35:39;35.65;34.14;37.06;;
41704;Laerm;861;48.808;9.006;2023-06-24T11:38:05;35.86;34.26;37.19;;
41704;Laerm;861;48.808;9.006;2023-06-24T11:40:33;35.74;34.43;36.97;;
41704;Laerm;861;48.808;9.006;2023-06-24T11:43:03;35.71;34.12;39.08;;
41704;Laerm;861;48.808;9.006;2023-06-24T11:45:32;35.71;33.84;46.87;;
41704;Laerm;861;48.808;9.006;2023-06-24T11:48:04;35.63;34.10;43.26;;
41704;Laerm;861;48.808;9.006;2023-06-24T11:50:37;35.76;34.35;37.18;;
41704;Laerm;861;48.808;9.006;2023-06-24T11:53:04;35.78;34.42;37.33;;
41704;Laerm;861;48.808;9.006;2023-06-24T11:55:32;35.54;34.02;37.00;;
41704;Laerm;861;48.808;9.006;2023-06-24T11:58:04;35.31;33.83;36.74;;
41704;Laerm;861;48.808;9.006;2023-06-24T12:00:41;35.29;33.80;36.77;;
41704;Laerm;861;48.808;9.006;2023-06-24T12:03:10;35.45;33.79;36.77;;
41704;Laerm;861;48.808;9.006;2023-06-24T12:05:40;35.46;33.74;36.87;;
41704;Laerm;861;48.808;9.006;2023-06-24T12:08:13;35.59;34.02;39.28;;
41704;Laerm;861;48.808;9.006;2023-06-24T12:10:45;35.48;34.15;36.90;;
41704;Laerm;861;48.808;9.006;2023-06-24T12:13:12;35.41;34.02;36.82;;
41704;Laerm;861;48.808;9.006;2023-06-24T12:15:39;35.39;34.09;41.23;;
41704;Laerm;861;48.808;9.006;2023-06-24T12:18:06;35.39;33.95;36.85;;
41704;Laerm;861;48.808;9.006;2023-06-24T12:20:33;35.27;33.81;36.91;;
41704;Laerm;861;48.808;9.006;2023-06-24T12:23:01;35.35;33.86;36.56;;
41704;Laerm;861;48.808;9.006;2023-06-24T12:25:27;35.26;33.46;37.62;;
41704;Laerm;861;48.808;9.006;2023-06-24T12:27:54;35.03;33.38;41.25;;
41704;Laerm;861;48.808;9.006;2023-06-24T12:30:21;34.88;33.44;40.58;;
41704;Laerm;861;48.808;9.006;2023-06-24T12:32:51;35.16;33.58;36.46;;
41704;Laerm;861;48.808;9.006;2023-06-24T12:35:18;35.03;33.66;38.04;;
41704;Laerm;861;48.808;9.006;2023-06-24T12:37:45;34.91;33.34;41.70;;
41704;Laerm;861;48.808;9.006;2023-06-24T12:40:12;34.87;33.38;40.34;;
41704;Laerm;861;48.808;9.006;2023-06-24T12:42:38;35.10;33.55;36.54;;
41704;Laerm;861;48.808;9.006;2023-06-24T12:45:06;35.00;33.59;40.49;;
41704;Laerm;861;48.808;9.006;2023-06-24T12:47:32;35.14;33.69;36.66;;
41704;Laerm;861;48.808;9.006;2023-06-24T12:49:59;35.19;33.71;36.58;;
41704;Laerm;861;48.808;9.006;2023-06-24T12:52:26;34.97;33.41;36.31;;
41704;Laerm;861;48.808;9.006;2023-06-24T12:54:52;35.09;33.49;36.66;;
41704;Laerm;861;48.808;9.006;2023-06-24T12:57:19;34.93;33.59;36.56;;
41704;Laerm;861;48.808;9.006;2023-06-24T12:59:45;35.16;33.50;36.92;;
41704;Laerm;861;48.808;9.006;2023-06-24T13:02:12;35.09;33.82;37.79;;
41704;Laerm;861;48.808;9.006;2023-06-24T13:04:38;35.13;33.63;37.17;;
41704;Laerm;861;48.808;9.006;2023-06-24T13:07:05;34.93;33.35;38.16;;
41704;Laerm;861;48.808;9.006;2023-06-24T13:09:33;34.91;33.36;37.33;;
41704;Laerm;861;48.808;9.006;2023-06-24T13:12:00;35.04;33.36;39.16;;
41704;Laerm;861;48.808;9.006;2023-06-24T13:14:26;35.00;33.60;36.26;;
41704;Laerm;861;48.808;9.006;2023-06-24T13:16:55;35.11;33.73;36.71;;
41704;Laerm;861;48.808;9.006;2023-06-24T13:19:22;34.96;33.10;36.26;;
41704;Laerm;861;48.808;9.006;2023-06-24T13:21:48;34.91;33.36;44.71;;
41704;Laerm;861;48.808;9.006;2023-06-24T13:24:15;34.70;33.23;37.13;;
41704;Laerm;861;48.808;9.006;2023-06-24T13:26:42;34.79;33.41;36.33;;
41704;Laerm;861;48.808;9.006;2023-06-24T13:29:08;34.98;33.69;36.39;;
41704;Laerm;861;48.808;9.006;2023-06-24T13:31:35;34.86;33.35;36.26;;
41704;Laerm;861;48.808;9.006;2023-06-24T13:34:01;34.87;33.34;38.33;;
41704;Laerm;861;48.808;9.006;2023-06-24T13:36:38;34.70;33.39;36.68;;
41704;Laerm;861;48.808;9.006;2023-06-24T13:39:08;34.76;33.03;39.80;;
41704;Laerm;861;48.808;9.006;2023-06-24T13:41:39;34.74;33.33;36.22;;
41704;Laerm;861;48.808;9.006;2023-06-24T13:44:06;34.82;33.46;40.34;;
41704;Laerm;861;48.808;9.006;2023-06-24T13:46:33;34.85;33.11;36.31;;
41704;Laerm;861;48.808;9.006;2023-06-24T13:49:01;35.01;33.38;36.61;;
41704;Laerm;861;48.808;9.006;2023-06-24T13:51:28;34.90;33.11;36.73;;
41704;Laerm;861;48.808;9.006;2023-06-24T13:53:56;34.91;33.40;45.20;;
41704;Laerm;861;48.808;9.006;2023-06-24T13:56:25;34.99;33.60;42.81;;
41704;Laerm;861;48.808;9.006;2023-06-24T13:58:54;34.90;33.26;36.26;;
41704;Laerm;861;48.808;9.006;2023-06-24T14:01:22;34.93;33.33;37.29;;
41704;Laerm;861;48.808;9.006;2023-06-24T14:03:50;34.98;33.24;36.48;;
41704;Laerm;861;48.808;9.006;2023-06-24T14:06:22;34.94;33.56;36.45;;
41704;Laerm;861;48.808;9.006;2023-06-24T14:08:51;34.85;33.34;36.26;;
41704;Laerm;861;48.808;9.006;2023-06-24T14:11:18;34.82;33.36;36.23;;
41704;Laerm;861;48.808;9.006;2023-06-24T14:13:45;34.84;33.43;36.58;;
41704;Laerm;861;48.808;9.006;2023-06-24T14:16:13;34.70;33.35;36.03;;
41704;Laerm;861;48.808;9.006;2023-06-24T14:18:41;34.99;33.44;38.57;;
41704;Laerm;861;48.808;9.006;2023-06-24T14:21:08;34.91;33.36;36.49;;
41704;Laerm;861;48.808;9.006;2023-06-24T14:23:35;34.88;33.50;36.63;;
41704;Laerm;861;48.808;9.006;2023-06-24T14:26:03;34.85;33.46;36.97;;
41704;Laerm;861;48.808;9.006;2023-06-24T14:28:30;34.76;33.05;36.06;;